sensor_id;sensor_type;location;lat;lon;timestamp;pressure;altitude;pressure_sealevel;temperature;humidity
60170;BME280;46042;49.444;6.862;2023-04-30T00:00:26;99023.66;;;9.58;100.00
60170;BME280;46042;49.444;6.862;2023-04-30T00:02:53;99035.47;;;9.51;100.00
60170;BME280;46042;49.444;6.862;2023-04-30T00:05:21;99029.16;;;9.53;100.00
60170;BME280;46042;49.444;6.862;2023-04-30T00:07:47;99024.59;;;9.57;100.00
60170;BME280;46042;49.444;6.862;2023-04-30T00:10:15;99021.97;;;9.57;100.00
60170;BME280;46042;49.444;6.862;2023-04-30T00:12:43;99026.38;;;9.57;100.00
60170;BME280;46042;49.444;6.862;2023-04-30T00:15:10;99018.47;;;9.57;100.00
60170;BME280;46042;49.444;6.862;2023-04-30T00:17:38;99022.03;;;9.56;100.00
60170;BME280;46042;49.444;6.862;2023-04-30T00:20:05;99018.47;;;9.57;100.00
60170;BME280;46042;49.444;6.862;2023-04-30T00:22:32;99016.78;;;9.56;100.00
60170;BME280;46042;49.444;6.862;2023-04-30T00:24:59;99022.97;;;9.54;100.00
60170;BME280;46042;49.444;6.862;2023-04-30T00:27:26;99029.16;;;9.53;100.00
60170;BME280;46042;49.444;6.862;2023-04-30T00:29:53;99024.84;;;9.52;100.00
60170;BME280;46042;49.444;6.862;2023-04-30T00:32:21;99024.00;;;9.52;100.00
60170;BME280;46042;49.444;6.862;2023-04-30T00:34:49;99017.91;;;9.51;100.00
60170;BME280;46042;49.444;6.862;2023-04-30T00:37:17;99016.78;;;9.56;100.00
60170;BME280;46042;49.444;6.862;2023-04-30T00:39:44;99021.91;;;9.59;100.00
60170;BME280;46042;49.444;6.862;2023-04-30T00:42:11;99014.31;;;9.52;100.00
60170;BME280;46042;49.444;6.862;2023-04-30T00:44:37;99014.44;;;9.51;100.00
60170;BME280;46042;49.444;6.862;2023-04-30T00:47:04;99013.75;;;9.47;100.00
60170;BME280;46042;49.444;6.862;2023-04-30T00:49:31;99019.31;;;9.41;100.00
60170;BME280;46042;49.444;6.862;2023-04-30T00:51:58;99014.94;;;9.42;100.00
60170;BME280;46042;49.444;6.862;2023-04-30T00:54:24;99018.41;;;9.42;100.00
60170;BME280;46042;49.444;6.862;2023-04-30T00:56:51;99018.31;;;9.44;100.00
60170;BME280;46042;49.444;6.862;2023-04-30T00:59:18;99014.06;;;9.41;100.00
60170;BME280;46042;49.444;6.862;2023-04-30T01:01:45;99005.59;;;9.36;100.00
60170;BME280;46042;49.444;6.862;2023-04-30T01:04:12;99014.94;;;9.42;100.00
60170;BME280;46042;49.444;6.862;2023-04-30T01:06:39;99010.78;;;9.37;100.00
60170;BME280;46042;49.444;6.862;2023-04-30T01:09:08;99010.78;;;9.37;100.00
60170;BME280;46042;49.444;6.862;2023-04-30T01:11:50;99022.13;;;9.38;100.00
60170;BME280;46042;49.444;6.862;2023-04-30T01:14:29;99017.72;;;9.38;100.00
60170;BME280;46042;49.444;6.862;2023-04-30T01:17:19;99010.09;;;9.34;100.00
60170;BME280;46042;49.444;6.862;2023-04-30T01:19:48;99010.94;;;9.34;100.00
60170;BME280;46042;49.444;6.862;2023-04-30T01:25:20;99010.50;;;9.26;100.00
60170;BME280;46042;49.444;6.862;2023-04-30T01:30:27;99009.16;;;9.19;100.00
60170;BME280;46042;49.444;6.862;2023-04-30T01:32:57;99002.88;;;9.21;100.00
60170;BME280;46042;49.444;6.862;2023-04-30T01:44:09;99003.03;;;9.18;100.00
60170;BME280;46042;49.444;6.862;2023-04-30T01:46:40;99009.31;;;9.16;100.00
60170;BME280;46042;49.444;6.862;2023-04-30T01:52:39;99004.31;;;9.11;100.00
60170;BME280;46042;49.444;6.862;2023-04-30T01:55:13;99008.88;;;9.07;100.00
60170;BME280;46042;49.444;6.862;2023-04-30T01:57:54;98999.47;;;9.03;100.00
60170;BME280;46042;49.444;6.862;2023-04-30T02:00:27;99002.28;;;9.00;100.00
60170;BME280;46042;49.444;6.862;2023-04-30T02:02:53;99006.50;;;9.03;100.00
60170;BME280;46042;49.444;6.862;2023-04-30T02:05:20;99001.25;;;9.03;100.00
60170;BME280;46042;49.444;6.862;2023-04-30T02:07:50;99007.34;;;9.03;100.00
60170;BME280;46042;49.444;6.862;2023-04-30T02:10:20;99010.00;;;9.03;100.00
60170;BME280;46042;49.444;6.862;2023-04-30T02:12:47;99018.47;;;9.08;100.00
60170;BME280;46042;49.444;6.862;2023-04-30T02:15:14;99017.34;;;9.13;100.00
60170;BME280;46042;49.444;6.862;2023-04-30T02:17:41;99021.78;;;9.12;100.00
60170;BME280;46042;49.444;6.862;2023-04-30T02:20:09;99014.72;;;9.13;100.00
60170;BME280;46042;49.444;6.862;2023-04-30T02:22:37;99015.41;;;9.16;100.00
60170;BME280;46042;49.444;6.862;2023-04-30T02:25:05;99014.66;;;9.14;100.00
60170;BME280;46042;49.444;6.862;2023-04-30T02:27:34;99018.97;;;9.15;100.00
60170;BME280;46042;49.444;6.862;2023-04-30T02:30:01;99018.91;;;9.17;100.00
60170;BME280;46042;49.444;6.862;2023-04-30T02:32:28;99020.50;;;9.19;100.00
60170;BME280;46042;49.444;6.862;2023-04-30T02:34:55;99016.28;;;9.17;100.00
60170;BME280;46042;49.444;6.862;2023-04-30T02:37:22;99016.28;;;9.17;100.00
60170;BME280;46042;49.444;6.862;2023-04-30T02:39:51;99013.72;;;9.15;100.00
60170;BME280;46042;49.444;6.862;2023-04-30T02:42:19;99009.75;;;9.08;100.00
60170;BME280;46042;49.444;6.862;2023-04-30T02:44:46;99012.50;;;9.05;100.00
60170;BME280;46042;49.444;6.862;2023-04-30T02:47:12;99010.00;;;9.03;100.00
60170;BME280;46042;49.444;6.862;2023-04-30T02:49:39;99009.88;;;9.05;100.00
60170;BME280;46042;49.444;6.862;2023-04-30T02:52:06;99003.97;;;9.01;100.00
60170;BME280;46042;49.444;6.862;2023-04-30T02:54:34;99008.47;;;8.99;100.00
60170;BME280;46042;49.444;6.862;2023-04-30T02:57:02;98997.16;;;8.97;100.00
60170;BME280;46042;49.444;6.862;2023-04-30T02:59:29;99001.34;;;9.01;100.00
60170;BME280;46042;49.444;6.862;2023-04-30T03:01:56;98999.66;;;9.00;100.00
60170;BME280;46042;49.444;6.862;2023-04-30T03:04:23;99002.28;;;9.00;100.00
60170;BME280;46042;49.444;6.862;2023-04-30T03:06:49;98994.53;;;8.97;100.00
60170;BME280;46042;49.444;6.862;2023-04-30T03:09:16;98996.16;;;9.00;100.00
60170;BME280;46042;49.444;6.862;2023-04-30T03:11:43;98989.97;;;9.01;100.00
60170;BME280;46042;49.444;6.862;2023-04-30T03:14:09;98993.53;;;9.00;100.00
60170;BME280;46042;49.444;6.862;2023-04-30T03:16:36;98992.69;;;8.99;100.00
60170;BME280;46042;49.444;6.862;2023-04-30T03:19:03;98988.69;;;8.92;100.00
60170;BME280;46042;49.444;6.862;2023-04-30T03:21:33;98995.88;;;8.88;100.00
60170;BME280;46042;49.444;6.862;2023-04-30T03:23:59;98995.22;;;8.85;100.00
60170;BME280;46042;49.444;6.862;2023-04-30T03:26:26;99002.22;;;8.84;100.00
60170;BME280;46042;49.444;6.862;2023-04-30T03:28:54;99002.22;;;8.84;100.00
60170;BME280;46042;49.444;6.862;2023-04-30T03:31:21;98997.13;;;8.81;100.00
60170;BME280;46042;49.444;6.862;2023-04-30T03:33:48;98999.69;;;8.82;100.00
60170;BME280;46042;49.444;6.862;2023-04-30T03:36:14;98996.22;;;8.82;100.00
60170;BME280;46042;49.444;6.862;2023-04-30T03:38:41;98991.88;;;8.81;100.00
60170;BME280;46042;49.444;6.862;2023-04-30T03:41:08;98996.03;;;8.85;100.00
60170;BME280;46042;49.444;6.862;2023-04-30T03:43:35;99003.09;;;8.85;100.00
60170;BME280;46042;49.444;6.862;2023-04-30T03:46:02;98994.44;;;8.82;100.00
60170;BME280;46042;49.444;6.862;2023-04-30T03:48:29;98999.69;;;8.82;100.00
60170;BME280;46042;49.444;6.862;2023-04-30T03:50:57;99001.41;;;8.84;100.00
60170;BME280;46042;49.444;6.862;2023-04-30T03:53:23;98996.22;;;8.82;100.00
60170;BME280;46042;49.444;6.862;2023-04-30T03:55:52;99004.09;;;8.82;100.00
60170;BME280;46042;49.444;6.862;2023-04-30T03:58:20;98996.22;;;8.82;100.00
60170;BME280;46042;49.444;6.862;2023-04-30T04:00:47;98994.69;;;8.78;100.00
60170;BME280;46042;49.444;6.862;2023-04-30T04:03:14;98999.16;;;8.76;100.00
60170;BME280;46042;49.444;6.862;2023-04-30T04:05:42;98993.91;;;8.76;100.00
60170;BME280;46042;49.444;6.862;2023-04-30T04:08:09;98990.53;;;8.74;100.00
60170;BME280;46042;49.444;6.862;2023-04-30T04:10:37;99001.88;;;8.74;100.00
60170;BME280;46042;49.444;6.862;2023-04-30T04:13:04;99001.88;;;8.74;100.00
60170;BME280;46042;49.444;6.862;2023-04-30T04:15:32;98994.31;;;8.68;100.00
60170;BME280;46042;49.444;6.862;2023-04-30T04:18:01;99000.25;;;8.72;100.00
60170;BME280;46042;49.444;6.862;2023-04-30T04:20:29;99002.19;;;8.68;100.00
60170;BME280;46042;49.444;6.862;2023-04-30T04:22:56;99002.09;;;8.70;100.00
60170;BME280;46042;49.444;6.862;2023-04-30T04:25:23;99001.50;;;8.64;100.00
60170;BME280;46042;49.444;6.862;2023-04-30T04:27:52;99001.56;;;8.63;100.00
60170;BME280;46042;49.444;6.862;2023-04-30T04:30:20;99004.19;;;8.63;100.00
60170;BME280;46042;49.444;6.862;2023-04-30T04:32:47;99005.81;;;8.65;100.00
60170;BME280;46042;49.444;6.862;2023-04-30T04:35:18;99010.31;;;8.63;100.00
60170;BME280;46042;49.444;6.862;2023-04-30T04:37:46;99019.72;;;8.67;100.00
60170;BME280;46042;49.444;6.862;2023-04-30T04:40:12;99014.69;;;8.63;100.00
60170;BME280;46042;49.444;6.862;2023-04-30T04:42:39;99015.63;;;8.62;100.00
60170;BME280;46042;49.444;6.862;2023-04-30T04:45:06;99017.03;;;8.69;100.00
60170;BME280;46042;49.444;6.862;2023-04-30T04:47:33;99014.69;;;8.63;100.00
60170;BME280;46042;49.444;6.862;2023-04-30T04:50:00;99015.50;;;8.65;100.00
60170;BME280;46042;49.444;6.862;2023-04-30T04:52:27;99017.78;;;8.71;100.00
60170;BME280;46042;49.444;6.862;2023-04-30T04:54:53;99024.56;;;8.75;100.00
60170;BME280;46042;49.444;6.862;2023-04-30T04:57:20;99024.25;;;8.81;100.00
60170;BME280;46042;49.444;6.862;2023-04-30T04:59:47;99016.53;;;8.78;100.00
60170;BME280;46042;49.444;6.862;2023-04-30T05:02:13;99024.00;;;8.86;100.00
60170;BME280;46042;49.444;6.862;2023-04-30T05:04:40;99027.34;;;8.90;100.00
60170;BME280;46042;49.444;6.862;2023-04-30T05:07:07;99024.69;;;8.90;100.00
60170;BME280;46042;49.444;6.862;2023-04-30T05:09:33;99022.78;;;8.93;100.00
60170;BME280;46042;49.444;6.862;2023-04-30T05:12:00;99021.84;;;8.94;100.00
60170;BME280;46042;49.444;6.862;2023-04-30T05:14:27;99024.13;;;9.01;100.00
60170;BME280;46042;49.444;6.862;2023-04-30T05:16:54;99022.19;;;9.04;100.00
60170;BME280;46042;49.444;6.862;2023-04-30T05:19:21;99024.72;;;9.06;100.00
60170;BME280;46042;49.444;6.862;2023-04-30T05:21:47;99023.78;;;9.07;100.00
60170;BME280;46042;49.444;6.862;2023-04-30T05:24:14;99021.84;;;9.10;100.00
60170;BME280;46042;49.444;6.862;2023-04-30T05:26:43;99019.91;;;9.14;100.00
60170;BME280;46042;49.444;6.862;2023-04-30T05:29:09;99025.59;;;9.22;100.00
60170;BME280;46042;49.444;6.862;2023-04-30T05:31:39;99021.03;;;9.26;100.00
60170;BME280;46042;49.444;6.862;2023-04-30T05:34:05;99025.94;;;9.32;100.00
60170;BME280;46042;49.444;6.862;2023-04-30T05:36:32;99028.25;;;9.38;100.00
60170;BME280;46042;49.444;6.862;2023-04-30T05:39:00;99026.13;;;9.45;100.00
60170;BME280;46042;49.444;6.862;2023-04-30T05:41:27;99028.34;;;9.53;100.00
60170;BME280;46042;49.444;6.862;2023-04-30T05:43:53;99033.84;;;9.64;100.00
60170;BME280;46042;49.444;6.862;2023-04-30T05:46:20;99026.00;;;9.79;100.00
60170;BME280;46042;49.444;6.862;2023-04-30T05:48:47;99024.66;;;9.88;100.00
60170;BME280;46042;49.444;6.862;2023-04-30T05:51:14;99024.88;;;9.99;100.00
60170;BME280;46042;49.444;6.862;2023-04-30T05:53:42;99024.75;;;10.17;100.00
60170;BME280;46042;49.444;6.862;2023-04-30T05:56:09;99020.28;;;10.33;100.00
60170;BME280;46042;49.444;6.862;2023-04-30T05:58:40;99019.22;;;10.52;100.00
60170;BME280;46042;49.444;6.862;2023-04-30T06:01:07;99018.88;;;10.73;100.00
60170;BME280;46042;49.444;6.862;2023-04-30T06:03:39;99024.63;;;10.79;100.00
60170;BME280;46042;49.444;6.862;2023-04-30T06:06:07;99019.84;;;11.01;100.00
60170;BME280;46042;49.444;6.862;2023-04-30T06:08:34;99015.50;;;11.14;100.00
60170;BME280;46042;49.444;6.862;2023-04-30T06:11:01;99018.00;;;11.45;100.00
60170;BME280;46042;49.444;6.862;2023-04-30T06:13:33;99014.00;;;11.52;98.37
60170;BME280;46042;49.444;6.862;2023-04-30T06:16:00;99009.56;;;11.67;100.00
60170;BME280;46042;49.444;6.862;2023-04-30T06:18:27;99011.19;;;11.83;100.00
60170;BME280;46042;49.444;6.862;2023-04-30T06:20:54;99004.78;;;12.00;99.67
60170;BME280;46042;49.444;6.862;2023-04-30T06:23:21;99005.34;;;12.05;96.65
60170;BME280;46042;49.444;6.862;2023-04-30T06:25:48;99007.63;;;12.24;94.89
60170;BME280;46042;49.444;6.862;2023-04-30T06:28:15;99012.31;;;12.33;95.56
60170;BME280;46042;49.444;6.862;2023-04-30T06:30:42;99006.38;;;12.56;96.30
60170;BME280;46042;49.444;6.862;2023-04-30T06:33:09;99008.28;;;12.54;90.88
60170;BME280;46042;49.444;6.862;2023-04-30T06:35:35;99007.66;;;12.89;93.14
60170;BME280;46042;49.444;6.862;2023-04-30T06:38:02;99010.09;;;13.05;93.56
60170;BME280;46042;49.444;6.862;2023-04-30T06:40:31;99013.69;;;12.78;83.67
60170;BME280;46042;49.444;6.862;2023-04-30T06:42:57;99007.69;;;12.50;86.81
60170;BME280;46042;49.444;6.862;2023-04-30T06:45:24;99010.72;;;12.44;87.60
60170;BME280;46042;49.444;6.862;2023-04-30T06:47:52;99011.91;;;12.78;94.62
60170;BME280;46042;49.444;6.862;2023-04-30T06:50:19;99015.25;;;13.06;89.56
60170;BME280;46042;49.444;6.862;2023-04-30T06:52:47;99004.97;;;13.65;94.52
60170;BME280;46042;49.444;6.862;2023-04-30T06:55:14;99013.19;;;13.49;83.19
60170;BME280;46042;49.444;6.862;2023-04-30T06:57:41;99002.00;;;13.70;86.70
60170;BME280;46042;49.444;6.862;2023-04-30T07:00:08;99012.56;;;13.32;79.70
60170;BME280;46042;49.444;6.862;2023-04-30T07:02:35;99010.66;;;13.96;85.63
60170;BME280;46042;49.444;6.862;2023-04-30T07:05:03;99013.03;;;13.63;77.44
60170;BME280;46042;49.444;6.862;2023-04-30T07:07:30;99013.59;;;13.43;79.74
60170;BME280;46042;49.444;6.862;2023-04-30T07:09:57;99009.28;;;13.79;84.62
60170;BME280;46042;49.444;6.862;2023-04-30T07:12:24;99005.75;;;13.78;79.49
60170;BME280;46042;49.444;6.862;2023-04-30T07:14:51;99014.56;;;13.79;78.09
60170;BME280;46042;49.444;6.862;2023-04-30T07:17:18;99013.59;;;13.56;81.49
60170;BME280;46042;49.444;6.862;2023-04-30T07:19:45;99008.38;;;14.27;84.23
60170;BME280;46042;49.444;6.862;2023-04-30T07:22:12;99008.59;;;14.24;74.44
60170;BME280;46042;49.444;6.862;2023-04-30T07:24:38;99007.66;;;14.36;78.31
60170;BME280;46042;49.444;6.862;2023-04-30T07:27:05;98999.19;;;14.20;74.74
60170;BME280;46042;49.444;6.862;2023-04-30T07:29:33;98997.34;;;14.56;77.61
60170;BME280;46042;49.444;6.862;2023-04-30T07:32:00;99012.84;;;14.85;72.21
60170;BME280;46042;49.444;6.862;2023-04-30T07:34:27;99007.44;;;14.51;71.99
60170;BME280;46042;49.444;6.862;2023-04-30T07:36:54;99008.00;;;14.79;74.03
60170;BME280;46042;49.444;6.862;2023-04-30T07:39:21;99007.28;;;14.77;71.61
60170;BME280;46042;49.444;6.862;2023-04-30T07:41:48;99014.03;;;14.81;70.47
60170;BME280;46042;49.444;6.862;2023-04-30T07:44:15;99011.03;;;14.74;70.67
60170;BME280;46042;49.444;6.862;2023-04-30T07:46:42;99012.78;;;14.62;70.61
60170;BME280;46042;49.444;6.862;2023-04-30T07:49:09;99010.78;;;14.30;69.33
60170;BME280;46042;49.444;6.862;2023-04-30T07:51:35;99010.31;;;14.36;71.17
60170;BME280;46042;49.444;6.862;2023-04-30T07:54:03;99015.78;;;14.58;70.38
60170;BME280;46042;49.444;6.862;2023-04-30T07:56:30;99021.13;;;14.69;70.13
60170;BME280;46042;49.444;6.862;2023-04-30T07:59:00;99012.41;;;14.20;65.65
60170;BME280;46042;49.444;6.862;2023-04-30T08:01:29;99021.31;;;14.07;67.88
60170;BME280;46042;49.444;6.862;2023-04-30T08:04:00;99031.78;;;13.85;67.33
60170;BME280;46042;49.444;6.862;2023-04-30T08:06:27;99026.88;;;13.91;70.50
60170;BME280;46042;49.444;6.862;2023-04-30T08:08:54;99020.59;;;13.81;69.33
60170;BME280;46042;49.444;6.862;2023-04-30T08:11:22;99017.66;;;13.97;69.86
60170;BME280;46042;49.444;6.862;2023-04-30T08:13:50;99020.91;;;14.25;68.39
60170;BME280;46042;49.444;6.862;2023-04-30T08:16:16;99025.03;;;14.99;63.62
60170;BME280;46042;49.444;6.862;2023-04-30T08:18:44;99023.63;;;14.59;64.31
60170;BME280;46042;49.444;6.862;2023-04-30T08:21:12;99028.78;;;14.49;65.75
60170;BME280;46042;49.444;6.862;2023-04-30T08:23:39;99038.53;;;15.07;66.57
60170;BME280;46042;49.444;6.862;2023-04-30T08:26:06;99031.34;;;14.62;63.42
60170;BME280;46042;49.444;6.862;2023-04-30T08:28:33;99043.56;;;14.76;63.52
60170;BME280;46042;49.444;6.862;2023-04-30T08:31:01;99030.44;;;14.86;63.67
60170;BME280;46042;49.444;6.862;2023-04-30T08:33:29;99029.84;;;14.83;63.48
60170;BME280;46042;49.444;6.862;2023-04-30T08:35:57;99036.00;;;15.29;66.90
60170;BME280;46042;49.444;6.862;2023-04-30T08:38:25;99029.50;;;15.77;64.94
60170;BME280;46042;49.444;6.862;2023-04-30T08:41:14;99037.03;;;16.16;60.93
60170;BME280;46042;49.444;6.862;2023-04-30T08:43:42;99031.19;;;15.11;59.67
60170;BME280;46042;49.444;6.862;2023-04-30T08:46:14;99027.63;;;14.65;59.38
60170;BME280;46042;49.444;6.862;2023-04-30T08:48:43;99039.31;;;14.27;62.11
60170;BME280;46042;49.444;6.862;2023-04-30T08:51:10;99041.53;;;15.03;63.52
60170;BME280;46042;49.444;6.862;2023-04-30T08:53:37;99038.03;;;15.14;64.79
60170;BME280;46042;49.444;6.862;2023-04-30T08:56:08;99045.63;;;14.84;63.15
60170;BME280;46042;49.444;6.862;2023-04-30T08:58:35;99037.19;;;14.79;63.86
60170;BME280;46042;49.444;6.862;2023-04-30T09:01:05;99046.88;;;14.56;62.19
60170;BME280;46042;49.444;6.862;2023-04-30T09:03:33;99041.53;;;14.80;65.06
60170;BME280;46042;49.444;6.862;2023-04-30T09:06:00;99038.75;;;14.93;65.54
60170;BME280;46042;49.444;6.862;2023-04-30T09:08:47;99032.06;;;14.64;64.55
60170;BME280;46042;49.444;6.862;2023-04-30T09:11:25;99043.78;;;14.37;63.15
60170;BME280;46042;49.444;6.862;2023-04-30T09:13:58;99042.34;;;14.33;63.02
60170;BME280;46042;49.444;6.862;2023-04-30T09:16:29;99040.69;;;14.44;65.08
60170;BME280;46042;49.444;6.862;2023-04-30T09:18:59;99036.38;;;15.01;65.82
60170;BME280;46042;49.444;6.862;2023-04-30T09:21:36;99046.38;;;14.98;62.89
60170;BME280;46042;49.444;6.862;2023-04-30T09:24:04;99035.84;;;15.42;69.29
60170;BME280;46042;49.444;6.862;2023-04-30T09:26:33;99042.84;;;15.54;68.34
60170;BME280;46042;49.444;6.862;2023-04-30T09:29:01;99042.25;;;15.39;62.76
60170;BME280;46042;49.444;6.862;2023-04-30T09:31:34;99041.19;;;15.07;60.72
60170;BME280;46042;49.444;6.862;2023-04-30T09:34:04;99052.50;;;15.10;64.27
60170;BME280;46042;49.444;6.862;2023-04-30T09:36:32;99047.56;;;14.82;64.02
60170;BME280;46042;49.444;6.862;2023-04-30T09:39:10;99045.38;;;14.76;63.33
60170;BME280;46042;49.444;6.862;2023-04-30T09:41:41;99040.38;;;14.60;65.78
60170;BME280;46042;49.444;6.862;2023-04-30T09:44:29;99041.03;;;14.75;66.22
60170;BME280;46042;49.444;6.862;2023-04-30T09:46:58;99038.22;;;14.65;64.67
60170;BME280;46042;49.444;6.862;2023-04-30T09:49:25;99033.38;;;14.59;65.86
60170;BME280;46042;49.444;6.862;2023-04-30T09:51:58;99050.25;;;14.58;62.29
60170;BME280;46042;49.444;6.862;2023-04-30T09:54:27;99050.31;;;14.81;64.04
60170;BME280;46042;49.444;6.862;2023-04-30T09:56:56;99036.88;;;14.71;63.07
60170;BME280;46042;49.444;6.862;2023-04-30T09:59:31;99038.28;;;14.88;65.01
60170;BME280;46042;49.444;6.862;2023-04-30T10:02:06;99041.19;;;15.19;66.77
60170;BME280;46042;49.444;6.862;2023-04-30T10:04:37;99044.91;;;15.05;62.77
60170;BME280;46042;49.444;6.862;2023-04-30T10:07:08;99037.69;;;15.07;64.60
60170;BME280;46042;49.444;6.862;2023-04-30T10:09:52;99037.22;;;15.13;65.26
60170;BME280;46042;49.444;6.862;2023-04-30T10:12:22;99031.41;;;14.97;61.75
60170;BME280;46042;49.444;6.862;2023-04-30T10:14:57;99026.34;;;15.05;61.86
60170;BME280;46042;49.444;6.862;2023-04-30T10:17:26;99024.06;;;15.34;63.55
60170;BME280;46042;49.444;6.862;2023-04-30T10:19:56;99030.44;;;15.32;58.98
60170;BME280;46042;49.444;6.862;2023-04-30T10:22:25;99006.56;;;15.32;62.17
60170;BME280;46042;49.444;6.862;2023-04-30T10:24:54;99009.75;;;15.58;63.00
60170;BME280;46042;49.444;6.862;2023-04-30T10:27:22;99014.25;;;15.58;60.05
60170;BME280;46042;49.444;6.862;2023-04-30T10:29:49;99010.88;;;15.44;59.29
60170;BME280;46042;49.444;6.862;2023-04-30T10:32:18;99013.44;;;15.34;57.60
60170;BME280;46042;49.444;6.862;2023-04-30T10:34:53;99007.00;;;15.48;57.38
60170;BME280;46042;49.444;6.862;2023-04-30T10:37:30;99006.66;;;15.42;58.21
60170;BME280;46042;49.444;6.862;2023-04-30T10:40:00;99004.88;;;15.31;58.11
60170;BME280;46042;49.444;6.862;2023-04-30T10:42:33;98999.59;;;14.97;54.82
60170;BME280;46042;49.444;6.862;2023-04-30T10:45:01;98994.63;;;15.26;58.20
60170;BME280;46042;49.444;6.862;2023-04-30T10:47:29;98995.25;;;15.07;56.89
60170;BME280;46042;49.444;6.862;2023-04-30T10:50:03;98989.34;;;15.03;55.80
60170;BME280;46042;49.444;6.862;2023-04-30T10:52:30;98991.25;;;15.35;57.34
60170;BME280;46042;49.444;6.862;2023-04-30T10:54:56;98983.09;;;15.60;56.45
60170;BME280;46042;49.444;6.862;2023-04-30T10:57:28;98976.34;;;16.21;53.89
60170;BME280;46042;49.444;6.862;2023-04-30T11:02:43;98951.88;;;16.48;50.58
60170;BME280;46042;49.444;6.862;2023-04-30T11:05:13;98954.59;;;16.58;53.20
60170;BME280;46042;49.444;6.862;2023-04-30T11:10:16;98954.78;;;16.67;53.32
60170;BME280;46042;49.444;6.862;2023-04-30T11:12:50;98955.75;;;16.66;52.73
60170;BME280;46042;49.444;6.862;2023-04-30T11:15:26;98961.22;;;16.43;56.89
60170;BME280;46042;49.444;6.862;2023-04-30T11:17:57;98956.19;;;16.18;53.58
60170;BME280;46042;49.444;6.862;2023-04-30T11:20:25;98951.56;;;15.99;55.08
60170;BME280;46042;49.444;6.862;2023-04-30T11:25:46;98948.06;;;16.62;52.85
60170;BME280;46042;49.444;6.862;2023-04-30T11:28:16;98946.81;;;16.67;54.49
60170;BME280;46042;49.444;6.862;2023-04-30T11:30:55;98950.94;;;16.90;55.17
60170;BME280;46042;49.444;6.862;2023-04-30T11:33:23;98948.25;;;16.49;50.65
60170;BME280;46042;49.444;6.862;2023-04-30T11:35:51;98946.72;;;16.47;51.85
60170;BME280;46042;49.444;6.862;2023-04-30T11:38:31;98938.63;;;16.58;53.90
60170;BME280;46042;49.444;6.862;2023-04-30T11:41:00;98943.22;;;16.77;51.55
60170;BME280;46042;49.444;6.862;2023-04-30T11:43:29;98934.84;;;17.13;54.43
60170;BME280;46042;49.444;6.862;2023-04-30T11:46:14;98933.41;;;17.19;52.19
60170;BME280;46042;49.444;6.862;2023-04-30T11:48:44;98935.34;;;16.76;53.78
60170;BME280;46042;49.444;6.862;2023-04-30T11:51:20;98937.75;;;16.48;52.31
60170;BME280;46042;49.444;6.862;2023-04-30T11:53:49;98935.31;;;16.14;51.45
60170;BME280;46042;49.444;6.862;2023-04-30T11:56:21;98937.78;;;16.27;51.92
60170;BME280;46042;49.444;6.862;2023-04-30T11:58:51;98933.63;;;16.13;52.02
60170;BME280;46042;49.444;6.862;2023-04-30T12:01:19;98933.81;;;16.42;53.32
60170;BME280;46042;49.444;6.862;2023-04-30T12:03:48;98935.75;;;16.40;52.91
60170;BME280;46042;49.444;6.862;2023-04-30T12:06:24;98937.78;;;16.79;54.17
60170;BME280;46042;49.444;6.862;2023-04-30T12:08:59;98930.19;;;16.74;52.62
60170;BME280;46042;49.444;6.862;2023-04-30T12:11:37;98934.63;;;16.43;52.16
60170;BME280;46042;49.444;6.862;2023-04-30T12:14:09;98934.72;;;16.31;51.48
60170;BME280;46042;49.444;6.862;2023-04-30T12:16:43;98921.97;;;16.87;58.18
60170;BME280;46042;49.444;6.862;2023-04-30T12:19:11;98926.13;;;16.70;51.44
60170;BME280;46042;49.444;6.862;2023-04-30T12:21:42;98925.25;;;16.39;49.58
60170;BME280;46042;49.444;6.862;2023-04-30T12:24:14;98924.19;;;16.82;52.15
60170;BME280;46042;49.444;6.862;2023-04-30T12:26:41;98935.56;;;17.25;53.31
60170;BME280;46042;49.444;6.862;2023-04-30T12:29:10;98922.91;;;17.08;51.79
60170;BME280;46042;49.444;6.862;2023-04-30T12:31:41;98916.56;;;16.99;52.66
60170;BME280;46042;49.444;6.862;2023-04-30T12:34:11;98926.16;;;16.80;52.71
60170;BME280;46042;49.444;6.862;2023-04-30T12:36:39;98923.88;;;16.44;53.30
60170;BME280;46042;49.444;6.862;2023-04-30T12:39:11;98922.97;;;16.96;56.21
60170;BME280;46042;49.444;6.862;2023-04-30T12:41:45;98927.72;;;17.43;52.59
60170;BME280;46042;49.444;6.862;2023-04-30T12:44:20;98924.94;;;17.45;53.86
60170;BME280;46042;49.444;6.862;2023-04-30T12:46:50;98924.00;;;17.05;50.23
60170;BME280;46042;49.444;6.862;2023-04-30T12:49:27;98924.00;;;16.74;52.67
60170;BME280;46042;49.444;6.862;2023-04-30T12:52:07;98928.78;;;16.70;53.28
60170;BME280;46042;49.444;6.862;2023-04-30T12:54:36;98924.03;;;16.84;55.75
60170;BME280;46042;49.444;6.862;2023-04-30T12:57:09;98918.97;;;17.02;54.85
60170;BME280;46042;49.444;6.862;2023-04-30T12:59:39;98917.91;;;17.24;52.84
60170;BME280;46042;49.444;6.862;2023-04-30T13:02:22;98914.97;;;17.57;51.52
60170;BME280;46042;49.444;6.862;2023-04-30T13:04:50;98917.34;;;17.70;52.78
60170;BME280;46042;49.444;6.862;2023-04-30T13:07:17;98916.38;;;17.51;51.86
60170;BME280;46042;49.444;6.862;2023-04-30T13:09:43;98926.38;;;17.08;48.84
60170;BME280;46042;49.444;6.862;2023-04-30T13:12:10;98916.81;;;16.96;50.92
60170;BME280;46042;49.444;6.862;2023-04-30T13:14:37;98921.53;;;16.82;51.47
60170;BME280;46042;49.444;6.862;2023-04-30T13:17:04;98921.06;;;16.77;50.73
60170;BME280;46042;49.444;6.862;2023-04-30T13:19:34;98919.94;;;16.39;50.57
60170;BME280;46042;49.444;6.862;2023-04-30T13:22:01;98910.03;;;16.50;52.97
60170;BME280;46042;49.444;6.862;2023-04-30T13:24:27;98919.66;;;16.42;51.67
60170;BME280;46042;49.444;6.862;2023-04-30T13:26:56;98904.75;;;16.60;53.66
60170;BME280;46042;49.444;6.862;2023-04-30T13:29:24;98905.69;;;17.12;54.79
60170;BME280;46042;49.444;6.862;2023-04-30T13:31:51;98905.13;;;17.28;50.73
60170;BME280;46042;49.444;6.862;2023-04-30T13:34:18;98902.03;;;17.23;50.49